createdAt,value
2018-09-03T00:02:00.000Z,16.6
2018-09-03T00:07:00.000Z,16.6
2018-09-03T00:12:00.000Z,16.7
2018-09-03T00:17:00.000Z,16.7
2018-09-03T00:22:00.000Z,16.7
2018-09-03T00:27:00.000Z,16.7
2018-09-03T00:32:00.000Z,16.7
2018-09-03T00:37:00.000Z,16.7
2018-09-03T00:42:00.000Z,16.7
2018-09-03T00:47:00.000Z,16.8
2018-09-03T00:52:00.000Z,16.8
2018-09-03T00:57:00.000Z,16.8
2018-09-03T01:02:00.000Z,16.8
2018-09-03T01:07:00.000Z,16.9
2018-09-03T01:12:00.000Z,16.9
2018-09-03T01:17:00.000Z,16.9
2018-09-03T01:22:00.000Z,16.9
2018-09-03T01:27:00.000Z,16.9
2018-09-03T01:32:00.000Z,16.9
2018-09-03T01:37:00.000Z,16.9
2018-09-03T01:42:00.000Z,16.8
2018-09-03T01:47:00.000Z,16.8
2018-09-03T01:52:00.000Z,16.8
2018-09-03T01:57:00.000Z,16.8
2018-09-03T02:02:00.000Z,16.8
2018-09-03T02:07:00.000Z,16.8
2018-09-03T02:12:00.000Z,16.8
2018-09-03T02:17:00.000Z,16.9
2018-09-03T02:22:00.000Z,16.9
2018-09-03T02:27:00.000Z,16.9
2018-09-03T02:32:00.000Z,16.9
2018-09-03T02:37:00.000Z,17.0
2018-09-03T02:42:00.000Z,17.0
2018-09-03T02:47:00.000Z,17.0
2018-09-03T02:52:00.000Z,17.0
2018-09-03T02:57:00.000Z,17.0
2018-09-03T03:02:00.000Z,17.1
2018-09-03T03:07:00.000Z,17.1
2018-09-03T03:12:00.000Z,17.1
2018-09-03T03:17:00.000Z,17.1
2018-09-03T03:22:00.000Z,17.2
2018-09-03T03:27:00.000Z,17.2
2018-09-03T03:33:00.000Z,17.3
2018-09-03T03:38:00.000Z,17.3
2018-09-03T03:43:00.000Z,17.3
2018-09-03T03:48:00.000Z,17.3
2018-09-03T03:53:00.000Z,17.3
2018-09-03T03:58:00.000Z,17.4
2018-09-03T04:03:00.000Z,17.4
2018-09-03T04:08:00.000Z,17.4
2018-09-03T04:13:00.000Z,17.4
2018-09-03T04:18:00.000Z,17.4
2018-09-03T04:23:00.000Z,17.4
2018-09-03T04:28:00.000Z,17.5
2018-09-03T04:33:00.000Z,17.5
2018-09-03T04:38:00.000Z,17.5
2018-09-03T04:43:00.000Z,17.5
2018-09-03T04:48:00.000Z,17.6
2018-09-03T04:53:00.000Z,17.6
2018-09-03T04:58:00.000Z,17.6
2018-09-03T05:03:00.000Z,17.7
2018-09-03T05:08:00.000Z,17.7
2018-09-03T05:13:00.000Z,17.7
2018-09-03T05:18:00.000Z,17.8
2018-09-03T05:23:00.000Z,17.8
2018-09-03T05:28:00.000Z,17.8
2018-09-03T05:33:00.000Z,17.7
2018-09-03T05:38:00.000Z,17.7
2018-09-03T05:43:00.000Z,17.7
2018-09-03T05:48:00.000Z,17.7
2018-09-03T05:53:00.000Z,17.7
2018-09-03T05:58:00.000Z,17.8
2018-09-03T06:03:00.000Z,17.8
2018-09-03T06:08:00.000Z,17.9
2018-09-03T06:13:00.000Z,17.9
2018-09-03T06:18:00.000Z,18.0
2018-09-03T06:23:00.000Z,18.2
2018-09-03T06:28:00.000Z,18.3
2018-09-03T06:33:00.000Z,18.4
2018-09-03T06:38:00.000Z,18.6
2018-09-03T06:43:00.000Z,18.7
2018-09-03T06:48:00.000Z,18.8
2018-09-03T06:53:00.000Z,19.0
2018-09-03T06:58:00.000Z,19.1
2018-09-03T07:03:00.000Z,19.3
2018-09-03T07:08:00.000Z,19.5
2018-09-03T07:13:00.000Z,19.6
2018-09-03T07:18:00.000Z,19.7
2018-09-03T07:23:00.000Z,19.6
2018-09-03T07:28:00.000Z,19.5
2018-09-03T07:33:00.000Z,19.5
2018-09-03T07:38:00.000Z,19.5
2018-09-03T07:43:00.000Z,19.7
2018-09-03T07:48:00.000Z,19.8
2018-09-03T07:53:00.000Z,20.0
2018-09-03T07:58:00.000Z,20.2
2018-09-03T08:03:00.000Z,20.6
2018-09-03T08:08:00.000Z,21.1
2018-09-03T08:13:00.000Z,21.1
2018-09-03T08:18:00.000Z,21.0
2018-09-03T08:23:00.000Z,21.0
2018-09-03T08:28:00.000Z,20.8
2018-09-03T08:33:00.000Z,20.8
2018-09-03T08:38:00.000Z,20.7
2018-09-03T08:43:00.000Z,20.7
2018-09-03T08:48:00.000Z,20.7
2018-09-03T08:53:00.000Z,20.8
2018-09-03T08:58:00.000Z,20.8
2018-09-03T09:03:00.000Z,20.8
2018-09-03T09:08:00.000Z,21.0
2018-09-03T09:13:00.000Z,21.2
2018-09-03T09:18:00.000Z,21.3
2018-09-03T09:23:00.000Z,21.2
2018-09-03T09:29:00.000Z,21.3
2018-09-03T09:34:00.000Z,21.5
2018-09-03T09:39:00.000Z,21.6
2018-09-03T09:44:00.000Z,21.8
2018-09-03T09:49:00.000Z,22.1
2018-09-03T09:54:00.000Z,22.3
2018-09-03T09:59:00.000Z,22.0
2018-09-03T10:04:00.000Z,21.8
2018-09-03T10:09:00.000Z,21.7
2018-09-03T10:14:00.000Z,21.8
2018-09-03T10:19:00.000Z,22.0
2018-09-03T10:24:00.000Z,22.0
2018-09-03T10:29:00.000Z,21.9
2018-09-03T10:34:00.000Z,22.0
2018-09-03T10:39:00.000Z,22.2
2018-09-03T10:44:00.000Z,22.4
2018-09-03T10:49:00.000Z,22.5
2018-09-03T10:54:00.000Z,22.5
2018-09-03T10:59:00.000Z,22.6
2018-09-03T11:04:00.000Z,22.8
2018-09-03T11:09:00.000Z,23.2
2018-09-03T11:14:00.000Z,23.3
2018-09-03T11:19:00.000Z,23.2
2018-09-03T11:24:00.000Z,23.0
2018-09-03T11:29:00.000Z,22.9
2018-09-03T11:34:00.000Z,22.7
2018-09-03T11:39:00.000Z,22.6
2018-09-03T11:44:00.000Z,22.4
2018-09-03T11:49:00.000Z,22.2
2018-09-03T11:54:00.000Z,22.0
2018-09-03T11:59:00.000Z,21.9
2018-09-03T12:04:00.000Z,21.8
2018-09-03T12:09:00.000Z,21.6
2018-09-03T12:14:00.000Z,21.6
2018-09-03T12:19:00.000Z,21.5
2018-09-03T12:24:00.000Z,21.4
2018-09-03T12:29:00.000Z,21.3
2018-09-03T12:34:00.000Z,21.2
2018-09-03T12:39:00.000Z,21.2
2018-09-03T12:44:00.000Z,21.1
2018-09-03T12:49:00.000Z,21.0
2018-09-03T12:54:00.000Z,21.0
2018-09-03T12:59:00.000Z,21.0
2018-09-03T13:04:00.000Z,21.1
2018-09-03T13:09:00.000Z,21.1
2018-09-03T13:14:00.000Z,21.4
2018-09-03T13:19:00.000Z,21.7
2018-09-03T13:24:00.000Z,21.9
2018-09-03T13:29:00.000Z,22.0
2018-09-03T13:34:00.000Z,22.0
2018-09-03T13:39:00.000Z,22.1
2018-09-03T13:44:00.000Z,22.1
2018-09-03T13:49:00.000Z,22.3
2018-09-03T13:54:00.000Z,22.3
2018-09-03T13:59:00.000Z,22.3
2018-09-03T14:04:00.000Z,22.2
2018-09-03T14:09:00.000Z,22.1
2018-09-03T14:14:00.000Z,22.0
2018-09-03T14:19:00.000Z,22.2
2018-09-03T14:24:00.000Z,22.2
2018-09-03T14:29:00.000Z,22.2
2018-09-03T14:34:00.000Z,22.2
2018-09-03T14:39:00.000Z,22.2
2018-09-03T14:44:00.000Z,22.2
2018-09-03T14:49:00.000Z,22.2
2018-09-03T14:54:00.000Z,22.2
2018-09-03T14:59:00.000Z,22.2
2018-09-03T15:04:00.000Z,22.1
2018-09-03T15:09:00.000Z,22.0
2018-09-03T15:14:00.000Z,21.8
2018-09-03T15:19:00.000Z,21.7
2018-09-03T15:24:00.000Z,21.6
2018-09-03T15:29:00.000Z,21.6
2018-09-03T15:35:00.000Z,21.5
2018-09-03T15:40:00.000Z,21.3
2018-09-03T15:45:00.000Z,20.8
2018-09-03T15:50:00.000Z,20.4
2018-09-03T15:55:00.000Z,20.2
2018-09-03T16:00:00.000Z,20.0
2018-09-03T16:05:00.000Z,19.9
2018-09-03T16:10:00.000Z,19.8
2018-09-03T16:15:00.000Z,19.7
2018-09-03T16:20:00.000Z,19.6
2018-09-03T16:25:00.000Z,19.5
2018-09-03T16:30:00.000Z,19.4
2018-09-03T16:35:00.000Z,19.3
2018-09-03T16:40:00.000Z,19.3
2018-09-03T16:45:00.000Z,19.3
2018-09-03T16:50:00.000Z,19.3
2018-09-03T16:55:00.000Z,19.3
2018-09-03T17:00:00.000Z,19.2
2018-09-03T17:05:00.000Z,19.2
2018-09-03T17:10:00.000Z,19.2
2018-09-03T17:15:00.000Z,19.2
2018-09-03T17:20:00.000Z,19.2
2018-09-03T17:25:00.000Z,19.1
2018-09-03T17:30:00.000Z,19.1
2018-09-03T17:35:00.000Z,19.1
2018-09-03T17:40:00.000Z,19.1
2018-09-03T17:45:00.000Z,19.0
2018-09-03T17:50:00.000Z,19.0
2018-09-03T17:55:00.000Z,18.9
2018-09-03T18:00:00.000Z,18.8
2018-09-03T18:05:00.000Z,18.7
2018-09-03T18:10:00.000Z,18.6
2018-09-03T18:15:00.000Z,18.5
2018-09-03T18:20:00.000Z,18.4
2018-09-03T18:25:00.000Z,18.3
2018-09-03T18:30:00.000Z,18.3
2018-09-03T18:35:00.000Z,18.2
2018-09-03T18:40:00.000Z,18.2
2018-09-03T18:45:00.000Z,18.1
2018-09-03T18:50:00.000Z,18.1
2018-09-03T18:55:00.000Z,18.1
2018-09-03T19:00:00.000Z,18.0
2018-09-03T19:05:00.000Z,18.0
2018-09-03T19:10:00.000Z,18.0
2018-09-03T19:15:00.000Z,17.9
2018-09-03T19:20:00.000Z,17.9
2018-09-03T19:25:00.000Z,17.8
2018-09-03T19:30:00.000Z,17.8
2018-09-03T19:35:00.000Z,17.7
2018-09-03T19:40:00.000Z,17.7
2018-09-03T19:45:00.000Z,17.7
2018-09-03T19:50:00.000Z,17.6
2018-09-03T19:55:00.000Z,17.6
2018-09-03T20:00:00.000Z,17.5
2018-09-03T20:05:00.000Z,17.5
2018-09-03T20:10:00.000Z,17.4
2018-09-03T20:15:00.000Z,17.4
2018-09-03T20:20:00.000Z,17.4
2018-09-03T20:25:00.000Z,17.3
2018-09-03T20:30:00.000Z,17.3
2018-09-03T20:35:00.000Z,17.3
2018-09-03T20:40:00.000Z,17.3
2018-09-03T20:45:00.000Z,17.3
2018-09-03T20:50:00.000Z,17.3
2018-09-03T20:55:00.000Z,17.3
2018-09-03T21:00:00.000Z,17.3
2018-09-03T21:05:00.000Z,17.3
2018-09-03T21:10:00.000Z,17.3
2018-09-03T21:15:00.000Z,17.3
2018-09-03T21:20:00.000Z,17.3
2018-09-03T21:25:00.000Z,17.3
2018-09-03T21:30:00.000Z,17.4
2018-09-03T21:35:00.000Z,17.4
2018-09-03T21:40:00.000Z,17.4
2018-09-03T21:45:00.000Z,17.4
2018-09-03T21:51:00.000Z,17.4
2018-09-03T21:56:00.000Z,17.4
2018-09-03T22:01:00.000Z,17.4
2018-09-03T22:06:00.000Z,17.4
2018-09-03T22:11:00.000Z,17.4
2018-09-03T22:16:00.000Z,17.4
2018-09-03T22:21:00.000Z,17.4
2018-09-03T22:26:00.000Z,17.4
2018-09-03T22:31:00.000Z,17.4
2018-09-03T22:36:00.000Z,17.3
2018-09-03T22:41:00.000Z,17.3
2018-09-03T22:46:00.000Z,17.3
2018-09-03T22:51:00.000Z,17.2
2018-09-03T22:56:00.000Z,17.2
2018-09-03T23:01:00.000Z,17.2
2018-09-03T23:06:00.000Z,17.1
2018-09-03T23:11:00.000Z,17.1
2018-09-03T23:16:00.000Z,17.0
2018-09-03T23:21:00.000Z,17.0
2018-09-03T23:26:00.000Z,17.0
2018-09-03T23:31:00.000Z,17.0
2018-09-03T23:36:00.000Z,16.9
2018-09-03T23:41:00.000Z,16.9
2018-09-03T23:46:00.000Z,16.9
2018-09-03T23:51:00.000Z,16.9
2018-09-03T23:56:00.000Z,16.9
